Time;durP1;ratioP1;P1;durP2;ratioP2;P2;SDS_P1;SDS_P2;PMS_P1;PMS_P2;Temp;Humidity;BMP_temperature;BMP_pressure;BME280_temperature;BME280_humidity;BME280_pressure;Samples;Min_cycle;Max_cycle;Signal;HPM_P1;HPM_P2
2024/03/09 00:04:16;;;;;;;;;;;;;;;1.42;100.00;94591.81;10577209;27;1986;-67
2024/03/09 00:09:19;;;;;;;;;;;;;;;1.37;100.00;94597.06;10568648;27;2019;-69
2024/03/09 00:14:22;;;;;;;;;;;;;;;1.38;100.00;94600.50;10574287;27;2061;-67
2024/03/09 00:19:26;;;;;;;;;;;;;;;1.41;100.00;94595.53;10551218;27;1973;-68
2024/03/09 00:24:28;;;;;;;;;;;;;;;1.37;100.00;94590.97;10558714;27;1917;-67
2024/03/09 00:29:33;;;;;;;;;;;;;;;1.32;100.00;94589.03;10551983;28;2986;-67
2024/03/09 00:34:37;;;;;;;;;;;;;;;1.28;100.00;94590.59;10549829;28;1893;-68
2024/03/09 00:39:42;;;;;;;;;;;;;;;1.18;100.00;94593.88;10548066;28;1978;-68
2024/03/09 00:44:48;;;;;;;;;;;;;;;1.25;100.00;94601.66;10550609;27;2373;-67
2024/03/09 00:49:51;;;;;;;;;;;;;;;1.15;100.00;94599.69;10556941;27;1884;-67
2024/03/09 00:54:54;;;;;;;;;;;;;;;1.26;100.00;94587.38;10549151;28;1936;-67
2024/03/09 00:59:56;;;;;;;;;;;;;;;1.20;100.00;94596.28;10549581;28;2169;-67
2024/03/09 01:04:59;;;;;;;;;;;;;;;1.15;100.00;94598.88;10549924;28;1939;-68
2024/03/09 01:10:01;;;;;;;;;;;;;;;1.05;100.00;94589.72;10550076;27;1889;-68
2024/03/09 01:15:06;;;;;;;;;;;;;;;1.02;100.00;94577.00;10547396;28;2894;-68
2024/03/09 01:20:09;;;;;;;;;;;;;;;0.92;100.00;94566.25;10547220;27;1930;-67
2024/03/09 01:25:12;;;;;;;;;;;;;;;0.77;100.00;94571.34;10556436;27;1914;-66
2024/03/09 01:30:15;;;;;;;;;;;;;;;0.79;100.00;94575.34;10544431;28;1896;-67
2024/03/09 01:35:18;;;;;;;;;;;;;;;0.73;100.00;94578.13;10551006;27;1900;-68
2024/03/09 01:40:21;;;;;;;;;;;;;;;0.78;100.00;94576.38;10547585;28;1896;-67
2024/03/09 01:45:24;;;;;;;;;;;;;;;0.70;100.00;94573.31;10548343;28;1931;-72
2024/03/09 01:50:26;;;;;;;;;;;;;;;0.67;100.00;94569.31;10543502;28;2082;-66
2024/03/09 01:55:29;;;;;;;;;;;;;;;0.66;100.00;94559.00;10552962;28;1873;-68
2024/03/09 02:00:34;;;;;;;;;;;;;;;0.59;100.00;94553.06;10541036;28;2888;-67
2024/03/09 02:05:39;;;;;;;;;;;;;;;0.52;100.00;94558.53;10542817;28;1970;-67
2024/03/09 02:10:41;;;;;;;;;;;;;;;0.44;100.00;94549.13;10548341;28;1929;-67
2024/03/09 02:15:49;;;;;;;;;;;;;;;0.48;100.00;94552.91;10536083;28;2105;-67
2024/03/09 02:20:52;;;;;;;;;;;;;;;0.54;100.00;94561.72;10538080;28;1991;-66
2024/03/09 02:25:56;;;;;;;;;;;;;;;0.50;100.00;94542.06;10545084;27;2018;-67
2024/03/09 02:30:59;;;;;;;;;;;;;;;0.38;100.00;94533.41;10550364;27;2033;-67
2024/03/09 02:36:03;;;;;;;;;;;;;;;0.30;100.00;94534.63;10546576;28;1888;-67
2024/03/09 02:41:05;;;;;;;;;;;;;;;0.29;100.00;94533.03;10534508;28;2855;-69
2024/03/09 02:46:08;;;;;;;;;;;;;;;0.33;100.00;94534.16;10552646;28;1922;-66
2024/03/09 02:51:13;;;;;;;;;;;;;;;0.36;100.00;94538.16;10540698;28;2024;-67
2024/03/09 02:56:15;;;;;;;;;;;;;;;0.33;100.00;94531.50;10583619;27;1947;-69
2024/03/09 03:01:18;;;;;;;;;;;;;;;0.38;100.00;94525.47;10544600;28;1935;-67
2024/03/09 03:06:21;;;;;;;;;;;;;;;0.46;100.00;94512.69;10545068;28;1912;-67
2024/03/09 03:11:24;;;;;;;;;;;;;;;0.47;100.00;94516.13;10554852;28;1983;-67
2024/03/09 03:16:28;;;;;;;;;;;;;;;0.40;100.00;94532.16;10547660;28;1872;-67
2024/03/09 03:21:30;;;;;;;;;;;;;;;0.39;100.00;94538.47;10541306;28;1937;-68
2024/03/09 03:26:34;;;;;;;;;;;;;;;0.40;100.00;94536.66;10539472;28;2713;-67
2024/03/09 03:31:38;;;;;;;;;;;;;;;0.42;100.00;94537.19;10535522;28;1913;-67
2024/03/09 03:36:45;;;;;;;;;;;;;;;0.65;100.00;94523.00;10545993;28;1900;-67
2024/03/09 03:41:48;;;;;;;;;;;;;;;0.68;100.00;94541.03;10538868;28;1902;-67
2024/03/09 03:46:51;;;;;;;;;;;;;;;0.84;100.00;94545.50;10534340;28;1983;-67
2024/03/09 03:51:55;;;;;;;;;;;;;;;0.84;100.00;94534.94;10535884;28;2027;-68
2024/03/09 03:56:58;;;;;;;;;;;;;;;0.90;100.00;94523.38;10550534;28;1956;-67
2024/03/09 04:02:01;;;;;;;;;;;;;;;0.85;100.00;94531.25;10549463;28;2304;-68
2024/03/09 04:07:04;;;;;;;;;;;;;;;0.86;100.00;94524.09;10543814;27;2955;-67
2024/03/09 04:12:07;;;;;;;;;;;;;;;0.81;100.00;94514.25;10549861;28;2133;-67
2024/03/09 04:17:11;;;;;;;;;;;;;;;0.76;100.00;94511.50;10548262;28;2013;-65
2024/03/09 04:22:14;;;;;;;;;;;;;;;0.67;100.00;94508.50;10551543;27;1921;-68
2024/03/09 04:27:18;;;;;;;;;;;;;;;0.66;100.00;94495.53;10546136;28;2053;-67
2024/03/09 04:32:21;;;;;;;;;;;;;;;0.56;100.00;94498.00;10553345;27;1986;-67
2024/03/09 04:37:27;;;;;;;;;;;;;;;0.39;100.00;94498.03;10549960;28;2109;-68
2024/03/09 04:42:30;;;;;;;;;;;;;;;0.30;100.00;94496.81;10544397;28;2005;-65
2024/03/09 04:47:37;;;;;;;;;;;;;;;0.33;100.00;94494.50;10548571;28;2975;-67
2024/03/09 04:52:40;;;;;;;;;;;;;;;0.28;100.00;94494.41;10545446;28;2044;-69
2024/03/09 04:57:43;;;;;;;;;;;;;;;0.24;100.00;94493.28;10552987;28;2033;-69
2024/03/09 05:02:45;;;;;;;;;;;;;;;0.25;100.00;94494.88;10550033;28;2014;-67
2024/03/09 05:07:48;;;;;;;;;;;;;;;0.15;100.00;94492.91;10557345;28;1918;-69
2024/03/09 05:12:53;;;;;;;;;;;;;;;0.05;100.00;94494.56;10546451;27;2001;-67
2024/03/09 05:17:58;;;;;;;;;;;;;;;0.00;100.00;94495.31;10539066;28;2136;-66
2024/03/09 05:23:03;;;;;;;;;;;;;;;0.02;100.00;94497.69;10544298;28;1975;-67
2024/03/09 05:28:11;;;;;;;;;;;;;;;0.01;100.00;94510.09;10546084;27;2986;-68
2024/03/09 05:33:15;;;;;;;;;;;;;;;0.08;100.00;94509.97;10548867;28;1975;-67
2024/03/09 05:38:17;;;;;;;;;;;;;;;-0.03;100.00;94501.84;10550107;28;1967;-67
2024/03/09 05:43:23;;;;;;;;;;;;;;;0.05;100.00;94505.94;10553340;28;1998;-67
2024/03/09 05:48:26;;;;;;;;;;;;;;;0.08;100.00;94504.66;10562181;28;1912;-68
2024/03/09 05:53:28;;;;;;;;;;;;;;;0.09;100.00;94511.56;10549332;28;2148;-67
2024/03/09 05:58:31;;;;;;;;;;;;;;;0.19;100.00;94498.50;10547758;28;1853;-66
2024/03/09 06:03:33;;;;;;;;;;;;;;;0.28;100.00;94497.06;10559177;28;2121;-67
2024/03/09 06:08:36;;;;;;;;;;;;;;;0.37;100.00;94498.25;10555493;28;2671;-67
2024/03/09 06:13:39;;;;;;;;;;;;;;;0.44;100.00;94493.59;10549829;28;2003;-66
2024/03/09 06:18:42;;;;;;;;;;;;;;;0.56;100.00;94500.66;10544313;28;1878;-67
2024/03/09 06:23:45;;;;;;;;;;;;;;;0.62;100.00;94507.63;10540020;28;2022;-67
2024/03/09 06:28:47;;;;;;;;;;;;;;;0.73;100.00;94512.81;10539890;28;1965;-66
2024/03/09 06:33:51;;;;;;;;;;;;;;;0.88;100.00;94514.88;10546336;28;1983;-67
2024/03/09 06:38:55;;;;;;;;;;;;;;;1.13;100.00;94517.06;10542675;28;2006;-68
2024/03/09 06:43:57;;;;;;;;;;;;;;;1.31;100.00;94497.41;10664903;22;2225;-64
2024/03/09 06:49:04;;;;;;;;;;;;;;;1.41;100.00;94489.59;10513828;28;2362;-62
2024/03/09 06:54:07;;;;;;;;;;;;;;;1.70;100.00;94484.06;10513955;28;1908;-62
2024/03/09 06:59:10;;;;;;;;;;;;;;;1.83;100.00;94487.13;10520206;28;1911;-62
2024/03/09 07:04:13;;;;;;;;;;;;;;;2.01;100.00;94490.47;10523537;28;1835;-64
2024/03/09 07:09:17;;;;;;;;;;;;;;;2.31;100.00;94480.13;10511726;28;2016;-63
2024/03/09 07:14:21;;;;;;;;;;;;;;;2.61;100.00;94476.13;10516741;28;1878;-64
2024/03/09 07:19:24;;;;;;;;;;;;;;;2.75;100.00;94474.63;10516660;28;1879;-64
2024/03/09 07:24:27;;;;;;;;;;;;;;;2.98;100.00;94468.09;10513082;28;2396;-63
2024/03/09 07:29:30;;;;;;;;;;;;;;;3.08;100.00;94468.16;10518696;28;1997;-63
2024/03/09 07:34:33;;;;;;;;;;;;;;;3.14;100.00;94467.13;10522219;28;1977;-64
2024/03/09 07:39:37;;;;;;;;;;;;;;;3.27;100.00;94465.06;10524909;28;2073;-63
2024/03/09 07:44:40;;;;;;;;;;;;;;;3.43;100.00;94469.34;10527195;28;2075;-63
2024/03/09 07:49:43;;;;;;;;;;;;;;;3.53;100.00;94480.03;10519083;28;2044;-64
2024/03/09 07:54:45;;;;;;;;;;;;;;;3.70;100.00;94487.78;10526367;28;1887;-69
2024/03/09 07:59:49;;;;;;;;;;;;;;;3.84;100.00;94486.22;10524111;28;1975;-67
2024/03/09 08:04:54;;;;;;;;;;;;;;;4.15;100.00;94480.97;10520912;28;1892;-64
2024/03/09 08:09:56;;;;;;;;;;;;;;;4.59;100.00;94487.34;10518885;28;1985;-63
2024/03/09 08:14:59;;;;;;;;;;;;;;;4.53;100.00;94464.47;10516839;28;3224;-64
2024/03/09 08:20:06;;;;;;;;;;;;;;;4.89;100.00;94465.19;10519881;28;2413;-64
2024/03/09 08:25:11;;;;;;;;;;;;;;;5.22;100.00;94455.00;10516657;28;2062;-65
2024/03/09 08:30:14;;;;;;;;;;;;;;;5.14;100.00;94467.00;10518553;28;2023;-66
2024/03/09 08:35:17;;;;;;;;;;;;;;;5.12;100.00;94463.03;10518659;28;1994;-64
2024/03/09 08:40:20;;;;;;;;;;;;;;;5.33;100.00;94464.53;10522106;28;2102;-65
2024/03/09 08:45:22;;;;;;;;;;;;;;;5.62;100.00;94463.91;10519532;28;1954;-65
2024/03/09 08:50:25;;;;;;;;;;;;;;;5.75;100.00;94463.28;10523807;28;1926;-63
2024/03/09 08:55:28;;;;;;;;;;;;;;;5.80;100.00;94447.28;10519559;28;2096;-63
2024/03/09 09:00:31;;;;;;;;;;;;;;;6.06;100.00;94455.16;10515277;28;1926;-65
2024/03/09 09:05:34;;;;;;;;;;;;;;;6.10;100.00;94450.84;10513138;28;1969;-63
2024/03/09 09:10:38;;;;;;;;;;;;;;;6.44;100.00;94451.66;10523128;28;3122;-64
2024/03/09 09:15:42;;;;;;;;;;;;;;;6.78;100.00;94445.47;10519969;28;1866;-63
2024/03/09 09:20:48;;;;;;;;;;;;;;;6.91;100.00;94438.69;10517795;28;2059;-64
2024/03/09 09:25:51;;;;;;;;;;;;;;;7.07;100.00;94428.66;10517340;28;1982;-65
2024/03/09 09:30:54;;;;;;;;;;;;;;;7.03;100.00;94423.06;10516952;28;2156;-62
2024/03/09 09:35:58;;;;;;;;;;;;;;;7.14;100.00;94423.75;10519451;28;2111;-63
2024/03/09 09:41:01;;;;;;;;;;;;;;;7.61;100.00;94419.44;10518604;28;2012;-63
2024/03/09 09:46:04;;;;;;;;;;;;;;;7.77;100.00;94413.59;10515458;28;2039;-65
2024/03/09 09:51:06;;;;;;;;;;;;;;;7.94;100.00;94418.44;10511124;28;2252;-64
2024/03/09 09:56:09;;;;;;;;;;;;;;;8.33;100.00;94409.28;10516658;28;2771;-65
2024/03/09 10:01:12;;;;;;;;;;;;;;;8.53;100.00;94406.31;10512763;28;2022;-64
2024/03/09 10:06:16;;;;;;;;;;;;;;;8.66;100.00;94389.47;10516021;28;1971;-64
2024/03/09 10:11:20;;;;;;;;;;;;;;;8.90;100.00;94396.53;10509880;28;1935;-66
2024/03/09 10:16:23;;;;;;;;;;;;;;;8.93;100.00;94395.97;10511021;28;1935;-64
2024/03/09 10:21:26;;;;;;;;;;;;;;;9.08;100.00;94398.34;10509622;28;2119;-63
2024/03/09 10:26:29;;;;;;;;;;;;;;;9.26;100.00;94387.84;10513019;28;2123;-63
2024/03/09 10:31:32;;;;;;;;;;;;;;;9.51;100.00;94387.31;10521198;28;2043;-64
2024/03/09 10:36:36;;;;;;;;;;;;;;;9.78;100.00;94381.09;10519139;28;2413;-63
2024/03/09 10:41:38;;;;;;;;;;;;;;;9.68;100.00;94378.66;10508290;28;2067;-64
2024/03/09 10:46:42;;;;;;;;;;;;;;;9.98;100.00;94377.16;10505420;28;2181;-66
2024/03/09 10:51:45;;;;;;;;;;;;;;;10.09;100.00;94367.78;10507562;28;2154;-64
2024/03/09 10:56:51;;;;;;;;;;;;;;;10.32;100.00;94365.16;10505836;28;2016;-63
2024/03/09 11:02:00;;;;;;;;;;;;;;;10.32;100.00;94365.94;10502484;28;2166;-68
2024/03/09 11:07:03;;;;;;;;;;;;;;;10.69;100.00;94351.31;10508736;28;1981;-69
2024/03/09 11:12:06;;;;;;;;;;;;;;;10.55;100.00;94348.69;10511608;28;2325;-66
2024/03/09 11:17:09;;;;;;;;;;;;;;;10.49;100.00;94328.41;10513268;28;2070;-64
2024/03/09 11:22:11;;;;;;;;;;;;;;;10.72;100.00;94318.44;10507599;28;2500;-65
2024/03/09 11:27:16;;;;;;;;;;;;;;;10.98;100.00;94320.44;10497718;28;1992;-63
2024/03/09 11:32:19;;;;;;;;;;;;;;;10.96;100.00;94303.81;10504601;28;2139;-65
2024/03/09 11:37:21;;;;;;;;;;;;;;;11.27;100.00;94298.38;10516488;28;2064;-70
2024/03/09 11:42:24;;;;;;;;;;;;;;;11.44;100.00;94292.22;10518645;28;2060;-66
2024/03/09 11:47:27;;;;;;;;;;;;;;;11.38;100.00;94288.88;10514372;28;2280;-66
2024/03/09 11:52:30;;;;;;;;;;;;;;;11.56;100.00;94278.94;10511119;28;1887;-72
2024/03/09 11:57:37;;;;;;;;;;;;;;;11.58;100.00;94271.34;10511044;28;2264;-68
2024/03/09 12:02:40;;;;;;;;;;;;;;;11.66;100.00;94269.75;10508880;28;1958;-74
2024/03/09 12:07:43;;;;;;;;;;;;;;;11.75;100.00;94257.88;10509106;28;1994;-66
2024/03/09 12:12:47;;;;;;;;;;;;;;;11.85;100.00;94251.41;10511745;28;2763;-65
2024/03/09 12:17:50;;;;;;;;;;;;;;;11.96;100.00;94259.94;10519496;28;1986;-66
2024/03/09 12:22:53;;;;;;;;;;;;;;;12.06;100.00;94248.84;10516637;28;1892;-66
2024/03/09 12:27:55;;;;;;;;;;;;;;;12.31;96.11;94234.53;10514428;28;2081;-67
2024/03/09 12:32:59;;;;;;;;;;;;;;;12.41;85.09;94226.09;10515029;28;2224;-70
2024/03/09 12:38:05;;;;;;;;;;;;;;;12.38;98.57;94218.66;10516731;28;2067;-68
2024/03/09 12:43:08;;;;;;;;;;;;;;;12.44;100.00;94214.66;10517093;28;2055;-71
2024/03/09 12:48:11;;;;;;;;;;;;;;;12.59;99.26;94201.75;10520433;28;2051;-68
2024/03/09 12:53:14;;;;;;;;;;;;;;;12.88;99.23;94214.47;10516502;28;2734;-69
2024/03/09 12:58:18;;;;;;;;;;;;;;;13.00;89.78;94211.88;10513900;28;2049;-68
2024/03/09 13:03:21;;;;;;;;;;;;;;;12.93;84.60;94211.59;10520152;28;2142;-74
2024/03/09 13:08:26;;;;;;;;;;;;;;;12.93;83.12;94206.22;10516801;28;1961;-65
2024/03/09 13:13:29;;;;;;;;;;;;;;;12.94;85.11;94205.88;10513176;28;2063;-67
2024/03/09 13:18:36;;;;;;;;;;;;;;;12.94;89.83;94191.59;10512944;28;2076;-65
2024/03/09 13:23:39;;;;;;;;;;;;;;;13.28;80.54;94187.91;10513466;28;2029;-65
2024/03/09 13:28:41;;;;;;;;;;;;;;;13.30;84.41;94177.59;10514659;28;1941;-65
2024/03/09 13:33:43;;;;;;;;;;;;;;;13.49;82.73;94175.22;10525641;28;2093;-65
2024/03/09 13:38:47;;;;;;;;;;;;;;;13.52;83.62;94169.13;10513972;28;1986;-64
2024/03/09 13:43:50;;;;;;;;;;;;;;;13.44;84.34;94170.00;10515563;28;1904;-64
2024/03/09 13:48:52;;;;;;;;;;;;;;;13.58;81.39;94172.44;10508027;28;2141;-65
2024/03/09 13:53:55;;;;;;;;;;;;;;;13.53;85.43;94176.13;10509223;28;1927;-66
2024/03/09 13:58:57;;;;;;;;;;;;;;;13.47;90.92;94176.66;10508660;28;2304;-66
2024/03/09 14:04:00;;;;;;;;;;;;;;;13.59;86.14;94174.00;10515626;28;1895;-66
2024/03/09 14:09:03;;;;;;;;;;;;;;;13.52;88.10;94158.34;10510635;28;2049;-65
2024/03/09 14:14:08;;;;;;;;;;;;;;;13.58;75.50;94155.44;10506105;28;2134;-67
2024/03/09 14:19:12;;;;;;;;;;;;;;;13.59;82.73;94162.41;10519504;28;1914;-66
2024/03/09 14:24:15;;;;;;;;;;;;;;;13.66;84.79;94162.66;10506648;28;2059;-65
2024/03/09 14:29:18;;;;;;;;;;;;;;;13.44;91.17;94166.53;10511885;28;2555;-65
2024/03/09 14:34:23;;;;;;;;;;;;;;;13.57;96.55;94153.88;10513641;28;2071;-69
2024/03/09 14:39:26;;;;;;;;;;;;;;;13.49;97.37;94155.53;10514352;28;2145;-65
2024/03/09 14:44:29;;;;;;;;;;;;;;;13.42;100.00;94145.28;10517378;28;2064;-66
2024/03/09 14:49:34;;;;;;;;;;;;;;;13.43;99.39;94144.16;10511161;28;1984;-65
2024/03/09 14:54:37;;;;;;;;;;;;;;;13.41;98.54;94140.97;10514245;28;2138;-65
2024/03/09 14:59:39;;;;;;;;;;;;;;;13.69;96.18;94135.03;10510354;28;1909;-66
2024/03/09 15:04:42;;;;;;;;;;;;;;;13.64;97.34;94127.91;10529618;27;1907;-66
2024/03/09 15:09:47;;;;;;;;;;;;;;;13.83;96.53;94132.81;10513050;28;2092;-65
2024/03/09 15:14:49;;;;;;;;;;;;;;;13.91;98.36;94133.84;10510132;28;1949;-66
2024/03/09 15:19:52;;;;;;;;;;;;;;;13.84;100.00;94125.50;10515985;28;2267;-64
2024/03/09 15:24:55;;;;;;;;;;;;;;;13.78;100.00;94119.50;10515848;28;2028;-65
2024/03/09 15:29:58;;;;;;;;;;;;;;;13.65;100.00;94134.09;10509408;28;1985;-65
2024/03/09 15:35:00;;;;;;;;;;;;;;;13.53;99.80;94135.63;10514716;28;2067;-66
2024/03/09 15:40:04;;;;;;;;;;;;;;;13.44;100.00;94129.53;10510163;28;1903;-65
2024/03/09 15:45:08;;;;;;;;;;;;;;;13.33;100.00;94128.34;10508270;28;2259;-66
2024/03/09 15:50:15;;;;;;;;;;;;;;;13.23;100.00;94128.72;10515980;28;2033;-65
2024/03/09 15:55:23;;;;;;;;;;;;;;;13.05;100.00;94119.19;10518266;28;2076;-64
2024/03/09 16:00:29;;;;;;;;;;;;;;;12.87;100.00;94116.63;10521715;28;1937;-65
2024/03/09 16:05:32;;;;;;;;;;;;;;;12.74;100.00;94100.69;10518059;28;2488;-66
2024/03/09 16:10:35;;;;;;;;;;;;;;;12.68;100.00;94108.97;10520110;28;1976;-66
2024/03/09 16:15:40;;;;;;;;;;;;;;;12.56;100.00;94100.00;10522521;28;2058;-65
2024/03/09 16:20:43;;;;;;;;;;;;;;;12.46;100.00;94106.53;10524310;28;1858;-66
2024/03/09 16:25:47;;;;;;;;;;;;;;;12.31;100.00;94105.19;10524297;28;1964;-69
2024/03/09 16:30:52;;;;;;;;;;;;;;;12.15;100.00;94106.84;10521140;28;1937;-65
2024/03/09 16:35:56;;;;;;;;;;;;;;;12.07;100.00;94107.69;10525952;28;2008;-65
2024/03/09 16:41:01;;;;;;;;;;;;;;;11.87;100.00;94101.09;10517472;28;2029;-64
2024/03/09 16:46:04;;;;;;;;;;;;;;;11.72;100.00;94101.59;10522296;28;2081;-65
2024/03/09 16:51:10;;;;;;;;;;;;;;;11.60;100.00;94104.97;10514969;28;2518;-64
2024/03/09 16:56:12;;;;;;;;;;;;;;;11.44;100.00;94091.22;10522207;28;2315;-67
2024/03/09 17:01:15;;;;;;;;;;;;;;;11.29;100.00;94097.88;10522983;28;1940;-67
2024/03/09 17:06:19;;;;;;;;;;;;;;;11.19;100.00;94084.75;10523740;28;2113;-65
2024/03/09 17:11:26;;;;;;;;;;;;;;;11.14;100.00;94093.00;10525375;28;2268;-66
2024/03/09 17:16:29;;;;;;;;;;;;;;;11.03;100.00;94089.06;10516925;28;1935;-66
2024/03/09 17:21:34;;;;;;;;;;;;;;;10.92;100.00;94082.41;10519231;28;2084;-70
2024/03/09 17:26:36;;;;;;;;;;;;;;;10.87;100.00;94085.25;10517106;28;1924;-65
2024/03/09 17:31:39;;;;;;;;;;;;;;;10.80;100.00;94070.38;10520770;28;2716;-66
2024/03/09 17:36:42;;;;;;;;;;;;;;;10.67;100.00;94071.31;10522384;28;2041;-65
2024/03/09 17:41:44;;;;;;;;;;;;;;;10.48;100.00;94095.00;10512047;28;2239;-66
2024/03/09 17:46:47;;;;;;;;;;;;;;;10.19;100.00;94101.72;10518704;28;2039;-67
2024/03/09 17:51:52;;;;;;;;;;;;;;;10.02;100.00;94094.38;10517360;28;1902;-65
2024/03/09 17:56:56;;;;;;;;;;;;;;;10.05;100.00;94090.28;10523990;28;2117;-66
2024/03/09 18:01:59;;;;;;;;;;;;;;;9.98;100.00;94082.66;10519186;28;1898;-63
2024/03/09 18:07:02;;;;;;;;;;;;;;;9.83;100.00;94085.00;10521629;28;1891;-65
2024/03/09 18:12:04;;;;;;;;;;;;;;;9.66;100.00;94077.66;10514755;28;2587;-65
2024/03/09 18:17:07;;;;;;;;;;;;;;;9.63;100.00;94062.97;10517447;28;1926;-66
2024/03/09 18:22:09;;;;;;;;;;;;;;;9.70;100.00;94071.38;10515396;28;2034;-65
2024/03/09 18:27:14;;;;;;;;;;;;;;;9.67;100.00;94072.00;10517131;28;2026;-66
2024/03/09 18:32:16;;;;;;;;;;;;;;;9.69;100.00;94083.19;10516962;28;1970;-65
2024/03/09 18:37:20;;;;;;;;;;;;;;;9.68;100.00;94073.56;10513517;28;2111;-65
2024/03/09 18:42:26;;;;;;;;;;;;;;;9.57;100.00;94060.75;10513888;28;2102;-65
2024/03/09 18:47:28;;;;;;;;;;;;;;;9.78;100.00;94066.34;10520764;28;2123;-65
2024/03/09 18:52:31;;;;;;;;;;;;;;;9.81;100.00;94060.38;10513208;28;2649;-65
2024/03/09 18:57:34;;;;;;;;;;;;;;;9.81;100.00;94055.00;10519016;28;2322;-66
2024/03/09 19:02:37;;;;;;;;;;;;;;;9.77;100.00;94049.44;10515137;28;1862;-66
2024/03/09 19:07:39;;;;;;;;;;;;;;;9.58;100.00;94038.97;10515084;28;1978;-66
2024/03/09 19:12:44;;;;;;;;;;;;;;;9.61;100.00;94035.69;10521627;28;1926;-65
2024/03/09 19:17:48;;;;;;;;;;;;;;;9.79;100.00;94028.47;10522347;28;2055;-66
2024/03/09 19:22:51;;;;;;;;;;;;;;;9.72;100.00;94020.06;10533892;28;2056;-65
2024/03/09 19:27:55;;;;;;;;;;;;;;;9.50;100.00;94018.25;10527103;28;1951;-65
2024/03/09 19:32:58;;;;;;;;;;;;;;;9.16;100.00;94025.03;10519387;28;2008;-66
2024/03/09 19:38:03;;;;;;;;;;;;;;;9.01;100.00;94028.09;10524236;28;2513;-65
2024/03/09 19:43:05;;;;;;;;;;;;;;;8.98;100.00;94023.34;10526195;28;1904;-67
2024/03/09 19:48:11;;;;;;;;;;;;;;;8.92;100.00;94019.22;10514903;28;2009;-67
2024/03/09 19:53:15;;;;;;;;;;;;;;;8.94;100.00;94011.66;10524322;28;1985;-64
2024/03/09 19:58:18;;;;;;;;;;;;;;;9.05;98.12;93998.81;10517914;28;2092;-66
2024/03/09 20:03:20;;;;;;;;;;;;;;;8.93;100.00;94010.06;10518443;28;1904;-64
2024/03/09 20:08:24;;;;;;;;;;;;;;;8.71;100.00;94008.19;10527131;28;1890;-65
2024/03/09 20:13:27;;;;;;;;;;;;;;;8.68;96.70;93997.28;10512284;28;2090;-65
2024/03/09 20:18:31;;;;;;;;;;;;;;;8.62;93.02;93997.41;10518707;27;2514;-63
2024/03/09 20:23:34;;;;;;;;;;;;;;;8.49;95.01;93997.47;10521466;28;2082;-66
2024/03/09 20:28:36;;;;;;;;;;;;;;;8.55;86.55;93983.66;10519684;28;2008;-65
2024/03/09 20:33:39;;;;;;;;;;;;;;;8.45;85.99;93983.88;10517349;28;2126;-64
2024/03/09 20:38:42;;;;;;;;;;;;;;;8.41;84.94;93980.25;10520721;28;2197;-73
2024/03/09 20:43:46;;;;;;;;;;;;;;;8.27;84.20;93971.41;10535585;28;2045;-71
2024/03/09 20:48:50;;;;;;;;;;;;;;;8.44;79.61;93976.94;10523918;28;2233;-72
2024/03/09 20:53:54;;;;;;;;;;;;;;;8.30;81.28;93974.28;10516929;28;1945;-75
2024/03/09 20:58:58;;;;;;;;;;;;;;;8.44;79.08;93973.47;10524217;28;1977;-72
2024/03/09 21:04:03;;;;;;;;;;;;;;;8.33;79.36;93970.22;10526742;28;2072;-67
2024/03/09 21:09:05;;;;;;;;;;;;;;;8.20;85.74;93974.50;10522432;28;2283;-66
2024/03/09 21:14:08;;;;;;;;;;;;;;;8.02;87.69;93970.91;10518747;28;1987;-66
2024/03/09 21:19:11;;;;;;;;;;;;;;;8.00;86.97;93973.09;10521348;28;3052;-68
2024/03/09 21:24:13;;;;;;;;;;;;;;;7.95;83.75;93954.50;10515113;28;1947;-64
2024/03/09 21:29:18;;;;;;;;;;;;;;;7.87;83.19;93949.81;10526733;28;2267;-66
2024/03/09 21:34:21;;;;;;;;;;;;;;;7.84;84.20;93950.44;10519734;28;1906;-66
2024/03/09 21:39:24;;;;;;;;;;;;;;;7.92;83.26;93944.38;10520104;28;2285;-68
2024/03/09 21:44:26;;;;;;;;;;;;;;;7.94;80.74;93934.16;10516223;28;2026;-65
2024/03/09 21:49:30;;;;;;;;;;;;;;;7.96;79.80;93939.22;10518114;28;1951;-67
2024/03/09 21:54:33;;;;;;;;;;;;;;;7.96;78.24;93923.97;10517498;28;2055;-68
2024/03/09 21:59:36;;;;;;;;;;;;;;;7.95;80.06;93918.88;10517418;28;2723;-70
2024/03/09 22:04:39;;;;;;;;;;;;;;;7.65;85.62;93928.38;10522777;28;1996;-66
2024/03/09 22:09:42;;;;;;;;;;;;;;;7.64;82.74;93924.13;10518826;27;2061;-73
2024/03/09 22:14:44;;;;;;;;;;;;;;;7.39;87.63;93926.25;10514314;28;2040;-67
2024/03/09 22:19:48;;;;;;;;;;;;;;;7.39;95.35;93920.09;10512377;28;1979;-65
2024/03/09 22:24:50;;;;;;;;;;;;;;;7.35;94.88;93911.88;10516857;28;1877;-65
2024/03/09 22:29:53;;;;;;;;;;;;;;;7.13;100.00;93911.81;10515251;28;2232;-66
2024/03/09 22:34:56;;;;;;;;;;;;;;;7.20;95.27;93912.97;10515252;28;1979;-65
2024/03/09 22:39:58;;;;;;;;;;;;;;;7.07;97.69;93902.31;10513694;28;1918;-64
2024/03/09 22:45:02;;;;;;;;;;;;;;;7.12;92.69;93904.84;10519319;28;1847;-66
2024/03/09 22:50:06;;;;;;;;;;;;;;;7.09;96.18;93910.81;10519953;28;2563;-67
2024/03/09 22:55:09;;;;;;;;;;;;;;;7.07;95.14;93891.63;10519262;28;1959;-65
2024/03/09 23:00:22;;;;;;;;;;;;;;;7.17;92.68;93899.41;10519108;28;2067;-65
2024/03/09 23:05:25;;;;;;;;;;;;;;;7.11;93.76;93893.38;10511560;28;2103;-63
2024/03/09 23:10:30;;;;;;;;;;;;;;;7.08;94.21;93893.19;10520137;28;1972;-65
2024/03/09 23:15:34;;;;;;;;;;;;;;;7.24;90.51;93884.56;10525370;28;1946;-66
2024/03/09 23:20:37;;;;;;;;;;;;;;;7.20;91.68;93888.13;10517118;28;2068;-65
2024/03/09 23:25:40;;;;;;;;;;;;;;;7.25;90.76;93886.16;10522739;28;1929;-65
2024/03/09 23:30:43;;;;;;;;;;;;;;;7.29;90.58;93886.34;10518310;28;2603;-65
2024/03/09 23:35:46;;;;;;;;;;;;;;;7.33;85.56;93873.97;10512078;28;2264;-65
2024/03/09 23:40:49;;;;;;;;;;;;;;;7.35;82.46;93871.78;10514108;28;2117;-65
2024/03/09 23:45:51;;;;;;;;;;;;;;;7.42;82.60;93866.81;10520154;28;1937;-65
2024/03/09 23:50:55;;;;;;;;;;;;;;;7.60;77.64;93857.09;10519139;28;2079;-65
2024/03/09 23:55:58;;;;;;;;;;;;;;;7.71;78.25;93857.66;10516561;28;1945;-64
